sensor_id;sensor_type;location;lat;lon;timestamp;P1;durP1;ratioP1;P2;durP2;ratioP2
14760;SDS011;7472;45.396;5.272;2022-11-15T00:01:48;7.82;;;6.65;;
14760;SDS011;7472;45.396;5.272;2022-11-15T00:04:15;8.95;;;7.05;;
14760;SDS011;7472;45.396;5.272;2022-11-15T00:06:43;7.25;;;6.55;;
14760;SDS011;7472;45.396;5.272;2022-11-15T00:09:10;7.55;;;5.97;;
14760;SDS011;7472;45.396;5.272;2022-11-15T00:11:38;8.30;;;6.07;;
14760;SDS011;7472;45.396;5.272;2022-11-15T00:14:06;7.35;;;6.30;;
14760;SDS011;7472;45.396;5.272;2022-11-15T00:16:34;8.25;;;6.10;;
14760;SDS011;7472;45.396;5.272;2022-11-15T00:19:02;8.27;;;6.18;;
14760;SDS011;7472;45.396;5.272;2022-11-15T00:21:29;8.82;;;5.88;;
14760;SDS011;7472;45.396;5.272;2022-11-15T00:23:58;6.85;;;6.15;;
14760;SDS011;7472;45.396;5.272;2022-11-15T00:26:25;8.35;;;6.53;;
14760;SDS011;7472;45.396;5.272;2022-11-15T00:28:52;9.27;;;7.00;;
14760;SDS011;7472;45.396;5.272;2022-11-15T00:31:21;9.90;;;8.90;;
14760;SDS011;7472;45.396;5.272;2022-11-15T00:33:48;9.57;;;8.57;;
14760;SDS011;7472;45.396;5.272;2022-11-15T00:36:16;9.45;;;8.15;;
14760;SDS011;7472;45.396;5.272;2022-11-15T00:38:43;9.38;;;7.80;;
14760;SDS011;7472;45.396;5.272;2022-11-15T00:41:11;9.15;;;8.13;;
14760;SDS011;7472;45.396;5.272;2022-11-15T00:43:38;10.95;;;9.80;;
14760;SDS011;7472;45.396;5.272;2022-11-15T00:46:08;11.25;;;10.07;;
14760;SDS011;7472;45.396;5.272;2022-11-15T00:48:37;9.77;;;8.77;;
14760;SDS011;7472;45.396;5.272;2022-11-15T00:51:04;11.23;;;10.00;;
14760;SDS011;7472;45.396;5.272;2022-11-15T00:53:32;13.50;;;9.63;;
14760;SDS011;7472;45.396;5.272;2022-11-15T00:55:59;10.63;;;9.50;;
14760;SDS011;7472;45.396;5.272;2022-11-15T00:58:27;12.57;;;9.27;;
14760;SDS011;7472;45.396;5.272;2022-11-15T01:00:54;10.18;;;8.77;;
14760;SDS011;7472;45.396;5.272;2022-11-15T01:03:21;12.05;;;10.18;;
14760;SDS011;7472;45.396;5.272;2022-11-15T01:05:50;10.38;;;8.95;;
14760;SDS011;7472;45.396;5.272;2022-11-15T01:08:17;13.13;;;9.10;;
14760;SDS011;7472;45.396;5.272;2022-11-15T01:10:45;10.98;;;9.48;;
14760;SDS011;7472;45.396;5.272;2022-11-15T01:13:12;10.40;;;9.20;;
14760;SDS011;7472;45.396;5.272;2022-11-15T01:15:40;11.88;;;9.57;;
14760;SDS011;7472;45.396;5.272;2022-11-15T01:18:07;10.50;;;8.90;;
14760;SDS011;7472;45.396;5.272;2022-11-15T01:20:38;9.98;;;8.13;;
14760;SDS011;7472;45.396;5.272;2022-11-15T01:23:07;10.90;;;9.60;;
14760;SDS011;7472;45.396;5.272;2022-11-15T01:25:34;10.07;;;8.50;;
14760;SDS011;7472;45.396;5.272;2022-11-15T01:28:02;11.25;;;9.23;;
14760;SDS011;7472;45.396;5.272;2022-11-15T01:30:29;10.57;;;8.73;;
14760;SDS011;7472;45.396;5.272;2022-11-15T01:32:57;10.50;;;9.20;;
14760;SDS011;7472;45.396;5.272;2022-11-15T01:35:24;10.65;;;8.70;;
14760;SDS011;7472;45.396;5.272;2022-11-15T01:37:51;12.48;;;9.27;;
14760;SDS011;7472;45.396;5.272;2022-11-15T01:40:20;10.73;;;8.73;;
14760;SDS011;7472;45.396;5.272;2022-11-15T01:42:47;11.52;;;10.32;;
14760;SDS011;7472;45.396;5.272;2022-11-15T01:45:15;10.45;;;9.30;;
14760;SDS011;7472;45.396;5.272;2022-11-15T01:47:43;11.38;;;8.70;;
14760;SDS011;7472;45.396;5.272;2022-11-15T01:50:12;8.88;;;7.97;;
14760;SDS011;7472;45.396;5.272;2022-11-15T01:52:41;10.35;;;8.23;;
14760;SDS011;7472;45.396;5.272;2022-11-15T01:55:09;11.27;;;8.60;;
14760;SDS011;7472;45.396;5.272;2022-11-15T01:57:39;10.35;;;8.48;;
14760;SDS011;7472;45.396;5.272;2022-11-15T02:00:08;11.95;;;8.32;;
14760;SDS011;7472;45.396;5.272;2022-11-15T02:02:36;10.73;;;8.80;;
14760;SDS011;7472;45.396;5.272;2022-11-15T02:05:04;11.07;;;9.88;;
14760;SDS011;7472;45.396;5.272;2022-11-15T02:07:32;11.70;;;10.05;;
14760;SDS011;7472;45.396;5.272;2022-11-15T02:09:59;13.75;;;11.25;;
14760;SDS011;7472;45.396;5.272;2022-11-15T02:12:29;12.00;;;10.77;;
14760;SDS011;7472;45.396;5.272;2022-11-15T02:14:58;15.05;;;11.05;;
14760;SDS011;7472;45.396;5.272;2022-11-15T02:17:31;12.05;;;10.85;;
14760;SDS011;7472;45.396;5.272;2022-11-15T02:20:14;14.30;;;10.95;;
14760;SDS011;7472;45.396;5.272;2022-11-15T02:22:51;12.05;;;10.13;;
14760;SDS011;7472;45.396;5.272;2022-11-15T02:25:28;13.07;;;10.00;;
14760;SDS011;7472;45.396;5.272;2022-11-15T02:28:06;11.70;;;9.43;;
14760;SDS011;7472;45.396;5.272;2022-11-15T02:30:40;13.55;;;10.27;;
14760;SDS011;7472;45.396;5.272;2022-11-15T02:33:10;11.63;;;9.82;;
14760;SDS011;7472;45.396;5.272;2022-11-15T02:35:42;9.70;;;8.70;;
14760;SDS011;7472;45.396;5.272;2022-11-15T02:38:12;8.68;;;7.88;;
14760;SDS011;7472;45.396;5.272;2022-11-15T02:40:45;9.52;;;8.63;;
14760;SDS011;7472;45.396;5.272;2022-11-15T02:43:16;10.57;;;9.07;;
14760;SDS011;7472;45.396;5.272;2022-11-15T02:46:04;8.70;;;7.80;;
14760;SDS011;7472;45.396;5.272;2022-11-15T02:48:33;7.47;;;6.78;;
14760;SDS011;7472;45.396;5.272;2022-11-15T02:51:01;6.95;;;6.25;;
14760;SDS011;7472;45.396;5.272;2022-11-15T02:53:28;6.55;;;5.95;;
14760;SDS011;7472;45.396;5.272;2022-11-15T02:55:56;8.13;;;5.78;;
14760;SDS011;7472;45.396;5.272;2022-11-15T02:58:37;7.90;;;6.13;;
14760;SDS011;7472;45.396;5.272;2022-11-15T03:01:11;6.95;;;5.90;;
14760;SDS011;7472;45.396;5.272;2022-11-15T03:03:46;6.03;;;5.43;;
14760;SDS011;7472;45.396;5.272;2022-11-15T03:06:20;10.75;;;5.90;;
14760;SDS011;7472;45.396;5.272;2022-11-15T03:08:52;7.97;;;5.82;;
14760;SDS011;7472;45.396;5.272;2022-11-15T03:11:21;6.82;;;5.20;;
14760;SDS011;7472;45.396;5.272;2022-11-15T03:13:52;5.68;;;5.18;;
14760;SDS011;7472;45.396;5.272;2022-11-15T03:16:24;6.05;;;5.55;;
14760;SDS011;7472;45.396;5.272;2022-11-15T03:18:52;5.65;;;4.97;;
14760;SDS011;7472;45.396;5.272;2022-11-15T03:21:22;6.15;;;5.55;;
14760;SDS011;7472;45.396;5.272;2022-11-15T03:23:50;6.40;;;5.80;;
14760;SDS011;7472;45.396;5.272;2022-11-15T03:26:18;6.35;;;5.75;;
14760;SDS011;7472;45.396;5.272;2022-11-15T03:28:48;6.25;;;5.65;;
14760;SDS011;7472;45.396;5.272;2022-11-15T03:31:17;8.05;;;7.25;;
14760;SDS011;7472;45.396;5.272;2022-11-15T03:34:05;8.32;;;7.22;;
14760;SDS011;7472;45.396;5.272;2022-11-15T03:36:34;9.63;;;8.63;;
14760;SDS011;7472;45.396;5.272;2022-11-15T03:39:02;10.02;;;9.02;;
14760;SDS011;7472;45.396;5.272;2022-11-15T03:41:33;10.15;;;9.13;;
14760;SDS011;7472;45.396;5.272;2022-11-15T03:44:04;9.57;;;8.68;;
14760;SDS011;7472;45.396;5.272;2022-11-15T03:46:32;10.27;;;9.07;;
14760;SDS011;7472;45.396;5.272;2022-11-15T03:49:03;9.65;;;8.65;;
14760;SDS011;7472;45.396;5.272;2022-11-15T03:51:33;10.98;;;9.88;;
14760;SDS011;7472;45.396;5.272;2022-11-15T03:54:02;10.15;;;9.10;;
14760;SDS011;7472;45.396;5.272;2022-11-15T03:56:29;9.98;;;8.85;;
14760;SDS011;7472;45.396;5.272;2022-11-15T03:58:57;9.77;;;8.77;;
14760;SDS011;7472;45.396;5.272;2022-11-15T04:01:24;10.13;;;8.93;;
14760;SDS011;7472;45.396;5.272;2022-11-15T04:03:52;9.95;;;7.60;;
14760;SDS011;7472;45.396;5.272;2022-11-15T04:06:19;10.32;;;8.18;;
14760;SDS011;7472;45.396;5.272;2022-11-15T04:08:48;11.07;;;7.90;;
14760;SDS011;7472;45.396;5.272;2022-11-15T04:11:15;8.43;;;7.63;;
14760;SDS011;7472;45.396;5.272;2022-11-15T04:13:42;10.52;;;8.45;;
14760;SDS011;7472;45.396;5.272;2022-11-15T04:16:10;8.75;;;7.78;;
14760;SDS011;7472;45.396;5.272;2022-11-15T04:18:37;7.68;;;6.88;;
14760;SDS011;7472;45.396;5.272;2022-11-15T04:21:05;8.40;;;7.47;;
14760;SDS011;7472;45.396;5.272;2022-11-15T04:23:51;7.75;;;6.50;;
14760;SDS011;7472;45.396;5.272;2022-11-15T04:26:36;6.63;;;5.45;;
14760;SDS011;7472;45.396;5.272;2022-11-15T04:29:03;8.40;;;5.78;;
14760;SDS011;7472;45.396;5.272;2022-11-15T04:31:48;5.15;;;4.57;;
14760;SDS011;7472;45.396;5.272;2022-11-15T04:34:15;5.50;;;5.00;;
14760;SDS011;7472;45.396;5.272;2022-11-15T04:36:43;4.38;;;3.97;;
14760;SDS011;7472;45.396;5.272;2022-11-15T04:39:29;4.47;;;4.07;;
14760;SDS011;7472;45.396;5.272;2022-11-15T04:41:57;3.92;;;3.63;;
14760;SDS011;7472;45.396;5.272;2022-11-15T04:44:24;4.95;;;3.42;;
14760;SDS011;7472;45.396;5.272;2022-11-15T04:46:51;6.10;;;4.07;;
14760;SDS011;7472;45.396;5.272;2022-11-15T04:49:19;4.07;;;3.60;;
14760;SDS011;7472;45.396;5.272;2022-11-15T04:51:46;3.90;;;3.60;;
14760;SDS011;7472;45.396;5.272;2022-11-15T04:54:14;3.90;;;3.60;;
14760;SDS011;7472;45.396;5.272;2022-11-15T04:56:43;4.78;;;4.32;;
14760;SDS011;7472;45.396;5.272;2022-11-15T04:59:10;6.00;;;5.38;;
14760;SDS011;7472;45.396;5.272;2022-11-15T05:01:38;7.43;;;5.78;;
14760;SDS011;7472;45.396;5.272;2022-11-15T05:04:05;6.18;;;5.57;;
14760;SDS011;7472;45.396;5.272;2022-11-15T05:06:47;9.57;;;5.75;;
14760;SDS011;7472;45.396;5.272;2022-11-15T05:09:15;6.82;;;5.82;;
14760;SDS011;7472;45.396;5.272;2022-11-15T05:11:44;9.55;;;5.53;;
14760;SDS011;7472;45.396;5.272;2022-11-15T05:14:11;7.72;;;6.75;;
14760;SDS011;7472;45.396;5.272;2022-11-15T05:16:39;8.23;;;7.43;;
14760;SDS011;7472;45.396;5.272;2022-11-15T05:19:06;8.65;;;7.40;;
14760;SDS011;7472;45.396;5.272;2022-11-15T05:21:34;8.35;;;7.45;;
14760;SDS011;7472;45.396;5.272;2022-11-15T05:24:02;7.78;;;7.03;;
14760;SDS011;7472;45.396;5.272;2022-11-15T05:26:29;7.25;;;6.55;;
14760;SDS011;7472;45.396;5.272;2022-11-15T05:28:58;8.55;;;7.35;;
14760;SDS011;7472;45.396;5.272;2022-11-15T05:31:26;9.70;;;7.70;;
14760;SDS011;7472;45.396;5.272;2022-11-15T05:33:54;8.57;;;7.32;;
14760;SDS011;7472;45.396;5.272;2022-11-15T05:36:25;9.73;;;7.63;;
14760;SDS011;7472;45.396;5.272;2022-11-15T05:38:54;8.20;;;7.40;;
14760;SDS011;7472;45.396;5.272;2022-11-15T05:41:22;8.77;;;7.40;;
14760;SDS011;7472;45.396;5.272;2022-11-15T05:43:52;8.80;;;7.82;;
14760;SDS011;7472;45.396;5.272;2022-11-15T05:46:21;9.07;;;7.50;;
14760;SDS011;7472;45.396;5.272;2022-11-15T05:48:49;9.55;;;6.90;;
14760;SDS011;7472;45.396;5.272;2022-11-15T05:51:17;7.22;;;6.30;;
14760;SDS011;7472;45.396;5.272;2022-11-15T05:53:46;7.60;;;6.13;;
14760;SDS011;7472;45.396;5.272;2022-11-15T05:56:14;8.10;;;7.35;;
14760;SDS011;7472;45.396;5.272;2022-11-15T05:58:42;7.68;;;6.97;;
14760;SDS011;7472;45.396;5.272;2022-11-15T06:01:10;7.90;;;7.20;;
14760;SDS011;7472;45.396;5.272;2022-11-15T06:03:39;8.65;;;7.85;;
14760;SDS011;7472;45.396;5.272;2022-11-15T06:06:06;8.18;;;7.43;;
14760;SDS011;7472;45.396;5.272;2022-11-15T06:08:34;11.13;;;9.95;;
14760;SDS011;7472;45.396;5.272;2022-11-15T06:11:04;8.60;;;7.80;;
14760;SDS011;7472;45.396;5.272;2022-11-15T06:13:32;7.82;;;6.35;;
14760;SDS011;7472;45.396;5.272;2022-11-15T06:16:00;5.97;;;5.43;;
14760;SDS011;7472;45.396;5.272;2022-11-15T06:18:28;6.63;;;5.10;;
14760;SDS011;7472;45.396;5.272;2022-11-15T06:21:00;6.40;;;5.50;;
14760;SDS011;7472;45.396;5.272;2022-11-15T06:23:27;5.72;;;4.95;;
14760;SDS011;7472;45.396;5.272;2022-11-15T06:25:57;7.80;;;5.05;;
14760;SDS011;7472;45.396;5.272;2022-11-15T06:28:24;5.78;;;5.18;;
14760;SDS011;7472;45.396;5.272;2022-11-15T06:30:52;6.03;;;4.97;;
14760;SDS011;7472;45.396;5.272;2022-11-15T06:33:19;8.02;;;5.50;;
14760;SDS011;7472;45.396;5.272;2022-11-15T06:35:46;5.70;;;5.20;;
14760;SDS011;7472;45.396;5.272;2022-11-15T06:38:15;6.78;;;4.68;;
14760;SDS011;7472;45.396;5.272;2022-11-15T06:40:43;5.18;;;4.68;;
14760;SDS011;7472;45.396;5.272;2022-11-15T06:43:10;4.25;;;3.85;;
14760;SDS011;7472;45.396;5.272;2022-11-15T06:45:38;6.25;;;4.38;;
14760;SDS011;7472;45.396;5.272;2022-11-15T06:48:05;7.13;;;4.28;;
14760;SDS011;7472;45.396;5.272;2022-11-15T06:50:33;4.07;;;3.67;;
14760;SDS011;7472;45.396;5.272;2022-11-15T06:53:01;6.68;;;3.90;;
14760;SDS011;7472;45.396;5.272;2022-11-15T06:55:30;4.75;;;3.88;;
14760;SDS011;7472;45.396;5.272;2022-11-15T06:57:57;4.88;;;4.07;;
14760;SDS011;7472;45.396;5.272;2022-11-15T07:00:24;4.90;;;4.40;;
14760;SDS011;7472;45.396;5.272;2022-11-15T07:02:52;6.18;;;4.25;;
14760;SDS011;7472;45.396;5.272;2022-11-15T07:05:19;4.28;;;3.58;;
14760;SDS011;7472;45.396;5.272;2022-11-15T07:07:50;4.25;;;3.85;;
14760;SDS011;7472;45.396;5.272;2022-11-15T07:10:18;7.22;;;4.22;;
14760;SDS011;7472;45.396;5.272;2022-11-15T07:12:48;8.23;;;4.25;;
14760;SDS011;7472;45.396;5.272;2022-11-15T07:15:15;5.82;;;3.60;;
14760;SDS011;7472;45.396;5.272;2022-11-15T07:17:43;5.15;;;4.07;;
14760;SDS011;7472;45.396;5.272;2022-11-15T07:20:10;4.90;;;3.60;;
14760;SDS011;7472;45.396;5.272;2022-11-15T07:22:38;3.97;;;3.58;;
14760;SDS011;7472;45.396;5.272;2022-11-15T07:25:06;3.75;;;3.35;;
14760;SDS011;7472;45.396;5.272;2022-11-15T07:27:34;5.00;;;3.50;;
14760;SDS011;7472;45.396;5.272;2022-11-15T07:30:03;3.20;;;2.78;;
14760;SDS011;7472;45.396;5.272;2022-11-15T07:32:31;3.97;;;3.38;;
14760;SDS011;7472;45.396;5.272;2022-11-15T07:34:58;5.88;;;3.88;;
14760;SDS011;7472;45.396;5.272;2022-11-15T07:37:25;5.28;;;3.20;;
14760;SDS011;7472;45.396;5.272;2022-11-15T07:39:53;3.92;;;3.47;;
14760;SDS011;7472;45.396;5.272;2022-11-15T07:42:20;3.30;;;3.00;;
14760;SDS011;7472;45.396;5.272;2022-11-15T07:45:07;3.63;;;3.33;;
14760;SDS011;7472;45.396;5.272;2022-11-15T07:47:35;3.78;;;3.45;;
14760;SDS011;7472;45.396;5.272;2022-11-15T07:50:02;3.78;;;3.47;;
14760;SDS011;7472;45.396;5.272;2022-11-15T07:52:30;4.72;;;4.15;;
14760;SDS011;7472;45.396;5.272;2022-11-15T07:54:57;4.75;;;3.50;;
14760;SDS011;7472;45.396;5.272;2022-11-15T07:57:24;4.72;;;3.85;;
14760;SDS011;7472;45.396;5.272;2022-11-15T07:59:52;4.30;;;3.28;;
14760;SDS011;7472;45.396;5.272;2022-11-15T08:02:21;3.95;;;3.55;;
14760;SDS011;7472;45.396;5.272;2022-11-15T08:04:48;3.85;;;3.55;;
14760;SDS011;7472;45.396;5.272;2022-11-15T08:07:16;4.25;;;3.85;;
14760;SDS011;7472;45.396;5.272;2022-11-15T08:09:43;4.90;;;4.28;;
14760;SDS011;7472;45.396;5.272;2022-11-15T08:12:10;4.35;;;3.95;;
14760;SDS011;7472;45.396;5.272;2022-11-15T08:14:38;4.35;;;3.80;;
14760;SDS011;7472;45.396;5.272;2022-11-15T08:17:05;5.22;;;4.45;;
14760;SDS011;7472;45.396;5.272;2022-11-15T08:19:34;6.88;;;4.18;;
14760;SDS011;7472;45.396;5.272;2022-11-15T08:22:01;4.10;;;3.80;;
14760;SDS011;7472;45.396;5.272;2022-11-15T08:24:29;5.38;;;4.63;;
14760;SDS011;7472;45.396;5.272;2022-11-15T08:26:56;6.53;;;4.20;;
14760;SDS011;7472;45.396;5.272;2022-11-15T08:29:23;5.40;;;4.45;;
14760;SDS011;7472;45.396;5.272;2022-11-15T08:31:51;7.85;;;3.63;;
14760;SDS011;7472;45.396;5.272;2022-11-15T08:34:18;4.13;;;3.28;;
14760;SDS011;7472;45.396;5.272;2022-11-15T08:36:47;5.28;;;3.75;;
14760;SDS011;7472;45.396;5.272;2022-11-15T08:39:14;3.80;;;3.42;;
14760;SDS011;7472;45.396;5.272;2022-11-15T08:41:42;5.43;;;3.55;;
14760;SDS011;7472;45.396;5.272;2022-11-15T08:44:09;6.45;;;4.43;;
14760;SDS011;7472;45.396;5.272;2022-11-15T08:46:37;4.25;;;3.65;;
14760;SDS011;7472;45.396;5.272;2022-11-15T08:49:04;4.15;;;3.63;;
14760;SDS011;7472;45.396;5.272;2022-11-15T08:51:31;4.65;;;3.80;;
14760;SDS011;7472;45.396;5.272;2022-11-15T08:54:00;4.15;;;3.50;;
14760;SDS011;7472;45.396;5.272;2022-11-15T08:56:28;4.43;;;3.72;;
14760;SDS011;7472;45.396;5.272;2022-11-15T08:58:55;8.40;;;3.55;;
14760;SDS011;7472;45.396;5.272;2022-11-15T09:01:22;3.53;;;3.22;;
14760;SDS011;7472;45.396;5.272;2022-11-15T09:03:50;5.70;;;3.60;;
14760;SDS011;7472;45.396;5.272;2022-11-15T09:06:17;5.10;;;4.55;;
14760;SDS011;7472;45.396;5.272;2022-11-15T09:08:45;7.00;;;5.53;;
14760;SDS011;7472;45.396;5.272;2022-11-15T09:11:14;8.07;;;7.28;;
14760;SDS011;7472;45.396;5.272;2022-11-15T09:13:45;8.00;;;6.63;;
14760;SDS011;7472;45.396;5.272;2022-11-15T09:16:12;7.85;;;7.03;;
14760;SDS011;7472;45.396;5.272;2022-11-15T09:18:40;8.95;;;6.60;;
14760;SDS011;7472;45.396;5.272;2022-11-15T09:21:08;9.82;;;6.97;;
14760;SDS011;7472;45.396;5.272;2022-11-15T09:23:35;8.77;;;7.38;;
14760;SDS011;7472;45.396;5.272;2022-11-15T09:26:03;8.98;;;7.05;;
14760;SDS011;7472;45.396;5.272;2022-11-15T09:28:32;11.82;;;7.82;;
14760;SDS011;7472;45.396;5.272;2022-11-15T09:31:00;9.80;;;8.07;;
14760;SDS011;7472;45.396;5.272;2022-11-15T09:33:28;8.38;;;7.53;;
14760;SDS011;7472;45.396;5.272;2022-11-15T09:35:59;8.18;;;6.90;;
14760;SDS011;7472;45.396;5.272;2022-11-15T09:38:26;7.38;;;6.35;;
14760;SDS011;7472;45.396;5.272;2022-11-15T09:40:57;6.85;;;6.10;;
14760;SDS011;7472;45.396;5.272;2022-11-15T09:43:29;7.32;;;6.63;;
14760;SDS011;7472;45.396;5.272;2022-11-15T09:46:00;6.82;;;6.10;;
14760;SDS011;7472;45.396;5.272;2022-11-15T09:48:37;6.53;;;5.93;;
14760;SDS011;7472;45.396;5.272;2022-11-15T09:51:09;8.43;;;5.93;;
14760;SDS011;7472;45.396;5.272;2022-11-15T09:53:41;8.35;;;6.03;;
14760;SDS011;7472;45.396;5.272;2022-11-15T09:56:12;6.55;;;5.50;;
14760;SDS011;7472;45.396;5.272;2022-11-15T09:58:43;7.60;;;5.00;;
14760;SDS011;7472;45.396;5.272;2022-11-15T10:01:16;6.25;;;4.85;;
14760;SDS011;7472;45.396;5.272;2022-11-15T10:03:44;5.30;;;4.82;;
14760;SDS011;7472;45.396;5.272;2022-11-15T10:06:21;6.40;;;4.78;;
14760;SDS011;7472;45.396;5.272;2022-11-15T10:08:51;5.95;;;4.88;;
14760;SDS011;7472;45.396;5.272;2022-11-15T10:11:20;4.85;;;4.20;;
14760;SDS011;7472;45.396;5.272;2022-11-15T10:13:50;5.50;;;4.82;;
14760;SDS011;7472;45.396;5.272;2022-11-15T10:16:26;6.20;;;4.68;;
14760;SDS011;7472;45.396;5.272;2022-11-15T10:18:59;4.15;;;3.75;;
14760;SDS011;7472;45.396;5.272;2022-11-15T10:21:39;6.43;;;4.57;;
14760;SDS011;7472;45.396;5.272;2022-11-15T10:24:10;5.18;;;4.10;;
14760;SDS011;7472;45.396;5.272;2022-11-15T10:26:38;5.28;;;4.32;;
14760;SDS011;7472;45.396;5.272;2022-11-15T10:29:05;9.55;;;5.05;;
14760;SDS011;7472;45.396;5.272;2022-11-15T10:31:34;5.45;;;3.78;;
14760;SDS011;7472;45.396;5.272;2022-11-15T10:34:10;6.72;;;4.30;;
14760;SDS011;7472;45.396;5.272;2022-11-15T10:36:39;4.40;;;3.85;;
14760;SDS011;7472;45.396;5.272;2022-11-15T10:39:11;5.00;;;4.13;;
14760;SDS011;7472;45.396;5.272;2022-11-15T10:41:39;5.22;;;4.72;;
14760;SDS011;7472;45.396;5.272;2022-11-15T10:49:54;5.25;;;4.28;;
14760;SDS011;7472;45.396;5.272;2022-11-15T10:52:21;3.90;;;3.60;;
14760;SDS011;7472;45.396;5.272;2022-11-15T10:54:51;6.78;;;4.00;;
14760;SDS011;7472;45.396;5.272;2022-11-15T10:57:20;4.35;;;3.95;;
14760;SDS011;7472;45.396;5.272;2022-11-15T10:59:49;5.30;;;4.80;;
14760;SDS011;7472;45.396;5.272;2022-11-15T11:02:30;4.68;;;4.18;;
14760;SDS011;7472;45.396;5.272;2022-11-15T11:04:59;5.18;;;4.05;;
14760;SDS011;7472;45.396;5.272;2022-11-15T11:07:28;5.20;;;4.07;;
14760;SDS011;7472;45.396;5.272;2022-11-15T11:09:59;5.05;;;4.55;;
14760;SDS011;7472;45.396;5.272;2022-11-15T11:12:27;6.03;;;4.65;;
14760;SDS011;7472;45.396;5.272;2022-11-15T11:14:57;5.57;;;5.07;;
14760;SDS011;7472;45.396;5.272;2022-11-15T11:17:27;5.20;;;4.68;;
14760;SDS011;7472;45.396;5.272;2022-11-15T11:20:00;6.25;;;4.78;;
14760;SDS011;7472;45.396;5.272;2022-11-15T11:22:30;5.85;;;4.93;;
14760;SDS011;7472;45.396;5.272;2022-11-15T11:25:03;4.65;;;4.25;;
14760;SDS011;7472;45.396;5.272;2022-11-15T11:27:36;5.38;;;4.70;;
14760;SDS011;7472;45.396;5.272;2022-11-15T11:30:09;6.28;;;4.32;;
14760;SDS011;7472;45.396;5.272;2022-11-15T11:32:50;5.65;;;5.15;;
14760;SDS011;7472;45.396;5.272;2022-11-15T11:35:24;7.78;;;5.13;;
14760;SDS011;7472;45.396;5.272;2022-11-15T11:37:58;6.97;;;6.10;;
14760;SDS011;7472;45.396;5.272;2022-11-15T11:40:29;14.07;;;10.55;;
14760;SDS011;7472;45.396;5.272;2022-11-15T11:42:59;9.18;;;7.78;;
14760;SDS011;7472;45.396;5.272;2022-11-15T11:45:37;6.25;;;5.65;;
14760;SDS011;7472;45.396;5.272;2022-11-15T11:48:10;5.68;;;4.97;;
14760;SDS011;7472;45.396;5.272;2022-11-15T11:50:41;5.82;;;4.72;;
14760;SDS011;7472;45.396;5.272;2022-11-15T11:53:11;7.32;;;5.65;;
14760;SDS011;7472;45.396;5.272;2022-11-15T11:55:39;8.18;;;5.57;;
14760;SDS011;7472;45.396;5.272;2022-11-15T11:58:11;8.27;;;6.03;;
14760;SDS011;7472;45.396;5.272;2022-11-15T12:00:40;11.10;;;7.05;;
14760;SDS011;7472;45.396;5.272;2022-11-15T12:03:09;5.57;;;5.07;;
14760;SDS011;7472;45.396;5.272;2022-11-15T12:05:41;5.53;;;4.80;;
14760;SDS011;7472;45.396;5.272;2022-11-15T12:08:22;6.85;;;5.15;;
14760;SDS011;7472;45.396;5.272;2022-11-15T12:10:52;6.18;;;4.63;;
14760;SDS011;7472;45.396;5.272;2022-11-15T12:13:22;4.70;;;4.30;;
14760;SDS011;7472;45.396;5.272;2022-11-15T12:15:53;4.90;;;4.47;;
14760;SDS011;7472;45.396;5.272;2022-11-15T12:18:23;5.07;;;4.25;;
14760;SDS011;7472;45.396;5.272;2022-11-15T12:20:53;5.18;;;4.68;;
14760;SDS011;7472;45.396;5.272;2022-11-15T12:23:23;4.68;;;3.95;;
14760;SDS011;7472;45.396;5.272;2022-11-15T12:25:54;5.88;;;4.53;;
14760;SDS011;7472;45.396;5.272;2022-11-15T12:28:26;6.35;;;4.43;;
14760;SDS011;7472;45.396;5.272;2022-11-15T12:30:59;4.97;;;4.45;;
14760;SDS011;7472;45.396;5.272;2022-11-15T12:33:33;6.55;;;5.55;;
14760;SDS011;7472;45.396;5.272;2022-11-15T12:36:04;7.63;;;5.93;;
14760;SDS011;7472;45.396;5.272;2022-11-15T12:38:51;5.43;;;4.93;;
14760;SDS011;7472;45.396;5.272;2022-11-15T12:41:20;5.80;;;5.18;;
14760;SDS011;7472;45.396;5.272;2022-11-15T12:43:48;5.88;;;4.95;;
14760;SDS011;7472;45.396;5.272;2022-11-15T12:46:20;6.20;;;5.15;;
14760;SDS011;7472;45.396;5.272;2022-11-15T12:48:49;6.65;;;4.95;;
14760;SDS011;7472;45.396;5.272;2022-11-15T12:51:18;5.32;;;4.80;;
14760;SDS011;7472;45.396;5.272;2022-11-15T12:53:46;4.90;;;4.38;;
14760;SDS011;7472;45.396;5.272;2022-11-15T12:56:18;6.75;;;4.95;;
14760;SDS011;7472;45.396;5.272;2022-11-15T12:58:47;6.72;;;5.03;;
14760;SDS011;7472;45.396;5.272;2022-11-15T13:04:21;5.60;;;5.00;;
14760;SDS011;7472;45.396;5.272;2022-11-15T13:06:51;10.98;;;7.15;;
14760;SDS011;7472;45.396;5.272;2022-11-15T13:12:06;8.50;;;7.45;;
14760;SDS011;7472;45.396;5.272;2022-11-15T13:17:24;8.35;;;6.13;;
14760;SDS011;7472;45.396;5.272;2022-11-15T13:19:53;8.30;;;5.28;;
14760;SDS011;7472;45.396;5.272;2022-11-15T13:22:25;6.18;;;5.57;;
14760;SDS011;7472;45.396;5.272;2022-11-15T13:25:14;6.00;;;5.43;;
14760;SDS011;7472;45.396;5.272;2022-11-15T13:27:44;4.78;;;4.38;;
14760;SDS011;7472;45.396;5.272;2022-11-15T13:30:23;6.07;;;4.22;;
14760;SDS011;7472;45.396;5.272;2022-11-15T13:32:51;6.28;;;4.47;;
14760;SDS011;7472;45.396;5.272;2022-11-15T13:35:20;4.57;;;3.80;;
14760;SDS011;7472;45.396;5.272;2022-11-15T13:37:49;7.20;;;3.33;;
14760;SDS011;7472;45.396;5.272;2022-11-15T13:40:22;6.93;;;4.13;;
14760;SDS011;7472;45.396;5.272;2022-11-15T13:42:50;3.67;;;3.33;;
14760;SDS011;7472;45.396;5.272;2022-11-15T13:45:18;4.43;;;3.83;;
14760;SDS011;7472;45.396;5.272;2022-11-15T13:47:50;4.95;;;4.22;;
14760;SDS011;7472;45.396;5.272;2022-11-15T13:50:18;4.85;;;4.25;;
14760;SDS011;7472;45.396;5.272;2022-11-15T13:52:48;5.55;;;4.32;;
14760;SDS011;7472;45.396;5.272;2022-11-15T13:55:17;6.15;;;5.30;;
14760;SDS011;7472;45.396;5.272;2022-11-15T13:57:46;5.22;;;4.63;;
14760;SDS011;7472;45.396;5.272;2022-11-15T14:00:29;6.32;;;4.30;;
14760;SDS011;7472;45.396;5.272;2022-11-15T14:03:01;4.07;;;3.67;;
14760;SDS011;7472;45.396;5.272;2022-11-15T14:05:32;5.68;;;3.75;;
14760;SDS011;7472;45.396;5.272;2022-11-15T14:08:00;6.40;;;3.70;;
14760;SDS011;7472;45.396;5.272;2022-11-15T14:10:31;4.20;;;3.72;;
14760;SDS011;7472;45.396;5.272;2022-11-15T14:12:59;3.78;;;3.47;;
14760;SDS011;7472;45.396;5.272;2022-11-15T14:15:28;4.63;;;3.55;;
14760;SDS011;7472;45.396;5.272;2022-11-15T14:17:57;5.70;;;4.20;;
14760;SDS011;7472;45.396;5.272;2022-11-15T14:20:28;5.45;;;3.70;;
14760;SDS011;7472;45.396;5.272;2022-11-15T14:22:57;4.47;;;3.40;;
14760;SDS011;7472;45.396;5.272;2022-11-15T14:25:25;6.50;;;3.70;;
14760;SDS011;7472;45.396;5.272;2022-11-15T14:28:11;4.72;;;3.30;;
14760;SDS011;7472;45.396;5.272;2022-11-15T14:30:39;4.07;;;3.05;;
14760;SDS011;7472;45.396;5.272;2022-11-15T14:33:18;3.85;;;3.05;;
14760;SDS011;7472;45.396;5.272;2022-11-15T14:35:46;4.82;;;3.80;;
14760;SDS011;7472;45.396;5.272;2022-11-15T14:38:13;3.95;;;3.45;;
14760;SDS011;7472;45.396;5.272;2022-11-15T14:40:41;7.53;;;4.05;;
14760;SDS011;7472;45.396;5.272;2022-11-15T14:43:10;4.03;;;3.63;;
14760;SDS011;7472;45.396;5.272;2022-11-15T14:45:38;4.75;;;4.35;;
14760;SDS011;7472;45.396;5.272;2022-11-15T14:48:06;4.80;;;4.28;;
14760;SDS011;7472;45.396;5.272;2022-11-15T14:50:33;4.05;;;3.53;;
14760;SDS011;7472;45.396;5.272;2022-11-15T14:53:01;5.47;;;3.80;;
14760;SDS011;7472;45.396;5.272;2022-11-15T14:55:30;8.13;;;4.93;;
14760;SDS011;7472;45.396;5.272;2022-11-15T14:58:00;7.32;;;4.03;;
14760;SDS011;7472;45.396;5.272;2022-11-15T15:00:30;6.40;;;4.85;;
14760;SDS011;7472;45.396;5.272;2022-11-15T15:02:57;4.70;;;4.30;;
14760;SDS011;7472;45.396;5.272;2022-11-15T15:05:26;5.35;;;4.85;;
14760;SDS011;7472;45.396;5.272;2022-11-15T15:07:53;6.97;;;4.65;;
14760;SDS011;7472;45.396;5.272;2022-11-15T15:10:20;5.70;;;4.53;;
14760;SDS011;7472;45.396;5.272;2022-11-15T15:12:48;6.60;;;4.70;;
14760;SDS011;7472;45.396;5.272;2022-11-15T15:15:16;5.97;;;4.38;;
14760;SDS011;7472;45.396;5.272;2022-11-15T15:17:45;28.60;;;17.55;;
14760;SDS011;7472;45.396;5.272;2022-11-15T15:20:13;42.85;;;25.67;;
14760;SDS011;7472;45.396;5.272;2022-11-15T15:22:40;16.30;;;11.38;;
14760;SDS011;7472;45.396;5.272;2022-11-15T15:25:14;6.88;;;5.45;;
14760;SDS011;7472;45.396;5.272;2022-11-15T15:27:45;9.95;;;6.40;;